Time;durP1;ratioP1;P1;durP2;ratioP2;P2;SDS_P1;SDS_P2;PMS_P1;PMS_P2;Temp;Humidity;BMP_temperature;BMP_pressure;BME280_temperature;BME280_humidity;BME280_pressure;Samples;Min_cycle;Max_cycle;Signal;HPM_P1;HPM_P2
2021/01/26 00:00:21;;;;;;;29.80;22.67;;;3.20;99.90;;;;;;5054970;28;20676;-66
2021/01/26 00:03:05;;;;;;;29.80;24.53;;;3.20;99.90;;;;;;5056708;28;20612;-66
2021/01/26 00:05:51;;;;;;;35.67;24.20;;;3.20;99.90;;;;;;5060839;28;20660;-65
2021/01/26 00:08:35;;;;;;;25.90;20.50;;;3.20;99.90;;;;;;5044011;28;20617;-66
2021/01/26 00:11:20;;;;;;;30.50;23.20;;;3.20;99.90;;;;;;5053965;28;20743;-66
2021/01/26 00:14:04;;;;;;;26.83;22.10;;;3.20;99.90;;;;;;5057067;28;20645;-66
2021/01/26 00:16:50;;;;;;;28.37;22.10;;;3.20;99.90;;;;;;5058261;28;20616;-67
2021/01/26 00:19:34;;;;;;;30.90;23.70;;;3.20;99.90;;;;;;5042566;28;20768;-64
2021/01/26 00:22:19;;;;;;;30.40;22.70;;;3.20;99.90;;;;;;5046975;28;21207;-66
2021/01/26 00:25:05;;;;;;;30.80;22.37;;;3.20;99.90;;;;;;5056507;28;21029;-66
2021/01/26 00:27:50;;;;;;;33.10;23.23;;;3.20;99.90;;;;;;5038046;28;20628;-66
2021/01/26 00:30:37;;;;;;;27.50;21.83;;;3.10;99.90;;;;;;5046269;28;20637;-66
2021/01/26 00:33:23;;;;;;;28.60;22.17;;;3.10;99.90;;;;;;5051279;28;20696;-65
2021/01/26 00:36:09;;;;;;;27.50;21.40;;;3.10;99.90;;;;;;5047725;28;20625;-66
2021/01/26 00:38:54;;;;;;;27.13;21.53;;;3.10;99.90;;;;;;5052204;28;21142;-66
2021/01/26 00:41:39;;;;;;;28.97;22.60;;;3.10;99.90;;;;;;5050904;28;20645;-66
2021/01/26 00:44:23;;;;;;;32.63;22.60;;;3.10;99.90;;;;;;5043311;28;21250;-66
2021/01/26 00:47:08;;;;;;;28.53;21.90;;;3.00;99.90;;;;;;5039466;28;21210;-66
2021/01/26 00:49:53;;;;;;;31.40;23.00;;;3.00;99.90;;;;;;5049906;28;20936;-66
2021/01/26 00:52:38;;;;;;;29.50;22.80;;;3.00;99.90;;;;;;5052293;28;20837;-66
2021/01/26 00:55:25;;;;;;;27.47;22.53;;;3.00;99.90;;;;;;5052628;28;20795;-65
2021/01/26 00:58:14;;;;;;;29.33;22.37;;;2.90;99.90;;;;;;5054712;28;20709;-66
2021/01/26 01:00:59;;;;;;;29.93;22.20;;;2.90;99.90;;;;;;5063306;28;20640;-65
2021/01/26 01:03:44;;;;;;;29.77;21.60;;;2.90;99.90;;;;;;5057939;28;20617;-64
2021/01/26 01:06:28;;;;;;;29.60;21.73;;;2.80;99.90;;;;;;5060155;28;20601;-66
2021/01/26 01:09:13;;;;;;;28.63;22.07;;;2.80;99.90;;;;;;5043798;28;20815;-64
2021/01/26 01:11:57;;;;;;;28.33;21.70;;;2.80;99.90;;;;;;5050749;28;20645;-66
2021/01/26 01:14:42;;;;;;;27.53;22.00;;;2.80;99.90;;;;;;5054427;28;20684;-66
2021/01/26 01:17:26;;;;;;;28.20;20.93;;;2.70;99.90;;;;;;5054685;28;20620;-66
2021/01/26 01:20:15;;;;;;;28.07;21.30;;;2.70;99.90;;;;;;5059511;28;20622;-65
2021/01/26 01:22:59;;;;;;;26.53;21.43;;;2.70;99.90;;;;;;5052294;28;20693;-66
2021/01/26 01:25:44;;;;;;;32.00;23.30;;;2.70;99.90;;;;;;5038730;28;20645;-67
2021/01/26 01:28:28;;;;;;;29.20;22.77;;;2.60;99.90;;;;;;5047813;28;20614;-66
2021/01/26 01:31:16;;;;;;;26.83;21.73;;;2.60;99.90;;;;;;5046639;28;20732;-66
2021/01/26 01:34:01;;;;;;;28.70;21.37;;;2.60;99.90;;;;;;5053340;28;21282;-64
2021/01/26 01:36:46;;;;;;;30.67;21.50;;;2.60;99.90;;;;;;5055335;28;20972;-66
2021/01/26 01:39:30;;;;;;;28.47;21.30;;;2.60;99.90;;;;;;5056017;28;20609;-66
2021/01/26 01:42:15;;;;;;;27.30;21.27;;;2.60;99.90;;;;;;5055575;28;20644;-66
2021/01/26 01:44:59;;;;;;;28.33;21.23;;;2.50;99.90;;;;;;5046303;28;20689;-66
2021/01/26 01:47:49;;;;;;;25.63;21.30;;;2.50;99.90;;;;;;5058120;28;20624;-66
2021/01/26 01:50:46;;;;;;;27.70;20.80;;;2.50;99.90;;;;;;5059638;28;20597;-65
2021/01/26 01:53:36;;;;;;;29.20;21.00;;;2.50;99.90;;;;;;5052472;28;21276;-66
2021/01/26 01:56:33;;;;;;;31.60;22.03;;;2.40;99.90;;;;;;5044481;28;20757;-66
2021/01/26 01:59:24;;;;;;;27.90;20.73;;;2.40;99.90;;;;;;5055961;28;20604;-66
2021/01/26 02:02:11;;;;;;;28.07;20.20;;;2.40;99.90;;;;;;5040095;28;20732;-66
2021/01/26 02:05:02;;;;;;;32.97;21.90;;;2.40;99.90;;;;;;5044406;28;21254;-66
2021/01/26 02:07:48;;;;;;;27.97;21.30;;;2.30;99.90;;;;;;5061221;28;20614;-66
2021/01/26 02:10:33;;;;;;;29.53;22.23;;;2.30;99.90;;;;;;5060869;28;20613;-66
2021/01/26 02:13:17;;;;;;;29.40;22.10;;;2.30;99.90;;;;;;5056431;28;21021;-65
2021/01/26 02:16:04;;;;;;;29.83;22.20;;;2.30;99.90;;;;;;5048783;28;20597;-66
2021/01/26 02:19:28;;;;;;;28.17;22.40;;;2.30;99.90;;;;;;5060527;28;20614;-66
2021/01/26 02:22:27;;;;;;;31.13;22.93;;;2.30;99.90;;;;;;5025937;28;21024;-64
2021/01/26 02:25:45;;;;;;;30.77;22.60;;;2.30;99.90;;;;;;5058434;28;20620;-67
2021/01/26 02:28:52;;;;;;;31.07;23.27;;;2.20;99.90;;;;;;5047216;28;20611;-66
2021/01/26 02:32:01;;;;;;;31.37;23.47;;;2.20;99.90;;;;;;5043376;28;20645;-65
2021/01/26 02:35:13;;;;;;;32.87;24.90;;;2.20;99.90;;;;;;5059787;28;20622;-66
2021/01/26 02:38:27;;;;;;;36.60;24.93;;;2.20;99.90;;;;;;5053619;28;20648;-66
2021/01/26 02:41:29;;;;;;;32.13;23.60;;;2.20;99.90;;;;;;5056706;28;20712;-66
2021/01/26 02:44:39;;;;;;;32.90;25.30;;;2.20;99.90;;;;;;5034870;28;21062;-64
2021/01/26 02:47:41;;;;;;;32.80;25.17;;;2.30;99.90;;;;;;5053505;28;20662;-65
2021/01/26 02:50:56;;;;;;;31.80;24.77;;;2.30;99.90;;;;;;5052784;28;20747;-66
2021/01/26 02:53:50;;;;;;;34.83;25.90;;;2.30;99.90;;;;;;5048523;28;20653;-65
2021/01/26 02:56:53;;;;;;;34.90;25.73;;;2.40;99.90;;;;;;5054131;28;22681;-66
2021/01/26 02:59:43;;;;;;;30.73;23.77;;;2.40;99.90;;;;;;5057591;28;20747;-65
2021/01/26 03:02:53;;;;;;;33.60;24.57;;;2.40;99.90;;;;;;5056941;28;20640;-66
2021/01/26 03:05:40;;;;;;;30.60;23.50;;;2.50;99.90;;;;;;5049719;28;20648;-66
2021/01/26 03:08:36;;;;;;;35.87;25.90;;;2.50;99.90;;;;;;5057678;28;20605;-66
2021/01/26 03:11:39;;;;;;;34.00;25.00;;;2.50;99.90;;;;;;5056957;28;20638;-66
2021/01/26 03:14:41;;;;;;;34.77;25.90;;;2.50;99.90;;;;;;5055908;28;20652;-66
2021/01/26 03:17:35;;;;;;;34.40;26.60;;;2.60;99.90;;;;;;5043291;28;20620;-65
2021/01/26 03:20:27;;;;;;;33.10;26.00;;;2.60;99.90;;;;;;5057725;28;21236;-66
2021/01/26 03:23:19;;;;;;;33.80;25.60;;;2.70;99.90;;;;;;5059264;28;20609;-66
2021/01/26 03:26:07;;;;;;;32.93;24.13;;;2.70;99.90;;;;;;5042476;28;20645;-66
2021/01/26 03:28:56;;;;;;;35.10;26.07;;;2.70;99.90;;;;;;5058560;28;21099;-64
2021/01/26 03:31:47;;;;;;;33.67;26.27;;;2.80;99.90;;;;;;5057481;28;21050;-65
2021/01/26 03:34:33;;;;;;;33.90;26.60;;;2.80;99.90;;;;;;5057383;28;20780;-65
2021/01/26 03:37:18;;;;;;;34.27;26.53;;;2.80;99.90;;;;;;5055925;28;21219;-66
2021/01/26 03:40:05;;;;;;;33.80;25.80;;;2.80;99.90;;;;;;5046194;28;20621;-66
2021/01/26 03:42:50;;;;;;;33.77;25.40;;;2.90;99.90;;;;;;5059135;28;21267;-66
2021/01/26 03:45:34;;;;;;;35.50;26.30;;;2.90;99.90;;;;;;5040335;28;20713;-66
2021/01/26 03:48:26;;;;;;;38.10;26.90;;;2.90;99.90;;;;;;5056361;28;20684;-65
2021/01/26 03:51:42;;;;;;;33.50;26.23;;;2.90;99.90;;;;;;5058052;28;20796;-66
2021/01/26 03:54:37;;;;;;;32.50;26.60;;;3.00;99.90;;;;;;5035739;28;20716;-66
2021/01/26 03:57:28;;;;;;;34.50;26.17;;;3.00;99.90;;;;;;5059194;28;20683;-65
2021/01/26 04:00:30;;;;;;;35.83;26.20;;;3.00;99.90;;;;;;5057751;28;20605;-66
2021/01/26 04:03:33;;;;;;;33.80;25.50;;;3.00;99.90;;;;;;5058540;28;20601;-66
2021/01/26 04:06:28;;;;;;;35.10;26.33;;;3.00;99.90;;;;;;5054931;28;21240;-66
2021/01/26 04:09:23;;;;;;;34.23;26.10;;;3.00;99.90;;;;;;5057250;28;20621;-66
2021/01/26 04:12:19;;;;;;;31.70;24.70;;;3.00;99.90;;;;;;5054387;28;21095;-66
2021/01/26 04:15:13;;;;;;;32.33;24.90;;;3.00;99.90;;;;;;5043485;28;20633;-66
2021/01/26 04:17:58;;;;;;;34.00;25.77;;;3.00;99.90;;;;;;5044716;28;20748;-65
2021/01/26 04:20:42;;;;;;;37.17;25.53;;;3.00;99.90;;;;;;5055161;28;20629;-63
2021/01/26 04:23:27;;;;;;;35.17;24.63;;;3.00;99.90;;;;;;5055341;28;20608;-66
2021/01/26 04:26:17;;;;;;;32.27;24.80;;;3.10;99.90;;;;;;5055494;28;20724;-66
2021/01/26 04:29:02;;;;;;;32.00;24.60;;;3.10;99.90;;;;;;5056101;28;20644;-65
2021/01/26 04:31:46;;;;;;;34.00;26.20;;;3.10;99.90;;;;;;5043820;28;20672;-66
2021/01/26 04:34:31;;;;;;;37.53;26.57;;;3.10;99.90;;;;;;5053152;28;20671;-66
2021/01/26 04:37:16;;;;;;;33.53;25.10;;;3.10;99.90;;;;;;5055466;28;20696;-66
2021/01/26 04:40:03;;;;;;;34.90;24.80;;;3.10;99.90;;;;;;5054957;28;20700;-65
2021/01/26 04:42:55;;;;;;;33.53;24.50;;;3.10;99.90;;;;;;5038761;28;21245;-66
2021/01/26 04:45:51;;;;;;;30.03;24.43;;;3.10;99.90;;;;;;5036183;28;20791;-66
2021/01/26 04:48:47;;;;;;;33.10;24.40;;;3.10;99.90;;;;;;5055552;28;20659;-66
2021/01/26 04:51:59;;;;;;;35.57;25.20;;;3.10;99.90;;;;;;5054038;28;21296;-66
2021/01/26 04:55:14;;;;;;;34.50;25.47;;;3.10;99.90;;;;;;5043029;28;20646;-66
2021/01/26 04:58:23;;;;;;;33.63;26.20;;;3.10;99.90;;;;;;5054816;28;20663;-65
2021/01/26 05:01:38;;;;;;;35.27;26.87;;;3.10;99.90;;;;;;5055938;28;20637;-66
2021/01/26 05:04:35;;;;;;;31.73;24.27;;;3.10;99.90;;;;;;5052839;28;20646;-65
2021/01/26 05:07:25;;;;;;;33.83;24.57;;;3.10;99.90;;;;;;5057763;28;20620;-66
2021/01/26 05:10:30;;;;;;;31.80;24.03;;;3.10;99.90;;;;;;5052897;28;20661;-65
2021/01/26 05:13:23;;;;;;;32.70;25.30;;;3.00;99.90;;;;;;5053492;28;20644;-65
2021/01/26 05:16:15;;;;;;;34.93;25.27;;;3.00;99.90;;;;;;5054619;28;21162;-66
2021/01/26 05:19:14;;;;;;;31.60;24.60;;;3.00;99.90;;;;;;5056215;28;20635;-69
2021/01/26 05:22:07;;;;;;;34.83;25.40;;;3.00;99.90;;;;;;5052793;28;20657;-65
2021/01/26 05:25:04;;;;;;;31.80;24.20;;;3.00;99.90;;;;;;5054292;28;20633;-66
2021/01/26 05:27:49;;;;;;;34.07;24.77;;;2.90;99.90;;;;;;5055548;28;20722;-66
2021/01/26 05:30:37;;;;;;;31.67;24.30;;;2.90;99.90;;;;;;5048283;28;20692;-66
2021/01/26 05:33:23;;;;;;;32.50;23.80;;;2.90;99.90;;;;;;5039203;28;20653;-65
2021/01/26 05:36:07;;;;;;;33.20;23.77;;;2.90;99.90;;;;;;5053040;28;20690;-66
2021/01/26 05:38:52;;;;;;;32.57;24.50;;;2.90;99.90;;;;;;5053337;28;20602;-66
2021/01/26 05:41:36;;;;;;;31.57;23.20;;;2.80;99.90;;;;;;5053170;28;20644;-66
2021/01/26 05:44:21;;;;;;;33.17;24.50;;;2.80;99.90;;;;;;5050463;28;20695;-66
2021/01/26 05:47:28;;;;;;;31.70;25.00;;;2.80;99.90;;;;;;5054384;28;20606;-66
2021/01/26 05:50:26;;;;;;;28.90;22.50;;;2.70;99.90;;;;;;5050669;28;20967;-66
2021/01/26 05:53:18;;;;;;;33.77;25.33;;;2.70;99.90;;;;;;5052963;28;20640;-66
2021/01/26 05:56:10;;;;;;;32.50;25.20;;;2.60;99.90;;;;;;5036734;28;21270;-66
2021/01/26 05:58:55;;;;;;;35.27;25.40;;;2.60;99.90;;;;;;5043272;28;20581;-66
2021/01/26 06:01:40;;;;;;;32.33;25.40;;;2.60;99.90;;;;;;5036192;28;20696;-65
2021/01/26 06:04:34;;;;;;;32.70;25.00;;;2.50;99.90;;;;;;5047544;28;20632;-64
2021/01/26 06:07:26;;;;;;;32.60;24.33;;;2.50;99.90;;;;;;5053308;28;20651;-65
2021/01/26 06:10:23;;;;;;;30.93;24.10;;;2.40;99.90;;;;;;5045173;28;20617;-64
2021/01/26 06:13:08;;;;;;;31.00;23.50;;;2.40;99.90;;;;;;5051644;28;20684;-66
2021/01/26 06:16:19;;;;;;;32.20;24.93;;;2.40;99.90;;;;;;5036081;28;21112;-65
2021/01/26 06:19:04;;;;;;;34.90;24.93;;;2.30;99.90;;;;;;5041049;28;20649;-66
2021/01/26 06:21:51;;;;;;;32.40;25.33;;;2.30;99.90;;;;;;5021775;28;20641;-64
2021/01/26 06:24:37;;;;;;;31.30;24.30;;;2.30;99.90;;;;;;5020416;28;20716;-66
2021/01/26 06:27:38;;;;;;;32.37;25.43;;;2.20;99.90;;;;;;5026124;28;20614;-66
2021/01/26 06:30:59;;;;;;;32.93;24.03;;;2.20;99.90;;;;;;5025239;28;20689;-66
2021/01/26 06:33:54;;;;;;;32.40;24.07;;;2.20;99.90;;;;;;5035290;28;20641;-66
2021/01/26 06:36:57;;;;;;;34.00;24.37;;;2.10;99.90;;;;;;5037401;28;20610;-66
2021/01/26 06:40:11;;;;;;;31.03;23.20;;;2.10;99.90;;;;;;5022941;28;20604;-67
2021/01/26 06:43:12;;;;;;;34.33;23.90;;;2.10;99.90;;;;;;5039175;28;20649;-66
2021/01/26 06:46:15;;;;;;;33.00;24.13;;;2.00;99.90;;;;;;5024509;28;20661;-67
2021/01/26 06:49:13;;;;;;;32.83;23.50;;;2.00;99.90;;;;;;5030242;28;20617;-66
2021/01/26 06:54:50;;;;;;;29.53;24.00;;;1.90;99.90;;;;;;4972471;28;20640;-66
2021/01/26 06:58:08;;;;;;;34.13;24.90;;;1.90;99.90;;;;;;4981494;28;20616;-65
2021/01/26 07:01:20;;;;;;;32.17;23.50;;;1.90;99.90;;;;;;4986538;28;20612;-66
2021/01/26 07:04:50;;;;;;;30.40;24.30;;;1.90;99.90;;;;;;4976773;28;20987;-66
2021/01/26 07:08:17;;;;;;;35.53;25.60;;;1.80;99.90;;;;;;4966753;28;20711;-67
2021/01/26 07:11:27;;;;;;;33.00;25.67;;;1.80;99.90;;;;;;4947246;28;21138;-65
2021/01/26 07:14:45;;;;;;;32.57;23.47;;;1.80;99.90;;;;;;4997351;28;21356;-66
2021/01/26 07:17:58;;;;;;;31.83;24.57;;;1.70;99.90;;;;;;4998530;28;20992;-66
2021/01/26 07:21:08;;;;;;;34.40;23.63;;;1.70;99.90;;;;;;4999038;28;20630;-65
2021/01/26 07:24:32;;;;;;;34.87;24.80;;;1.70;99.90;;;;;;5005473;28;21231;-66
2021/01/26 07:27:38;;;;;;;30.00;23.63;;;1.70;99.90;;;;;;5020893;28;20622;-65
2021/01/26 07:30:32;;;;;;;34.40;24.47;;;1.70;99.90;;;;;;5014628;28;20626;-66
2021/01/26 07:33:48;;;;;;;34.77;25.80;;;1.60;99.90;;;;;;5000702;28;20646;-64
2021/01/26 07:36:37;;;;;;;38.47;26.17;;;1.60;99.90;;;;;;5003223;28;20603;-66
2021/01/26 07:39:58;;;;;;;35.30;25.30;;;1.60;99.90;;;;;;5021471;28;20587;-65
2021/01/26 07:43:10;;;;;;;33.03;24.80;;;1.60;99.90;;;;;;5002649;28;20813;-62
2021/01/26 07:46:03;;;;;;;33.43;26.73;;;1.60;99.90;;;;;;5024975;28;20684;-65
2021/01/26 07:48:55;;;;;;;33.80;26.77;;;1.70;99.90;;;;;;5014763;28;21168;-65
2021/01/26 07:51:42;;;;;;;33.93;26.40;;;1.70;99.90;;;;;;5021555;28;20630;-66
2021/01/26 07:54:39;;;;;;;32.47;25.00;;;1.80;99.90;;;;;;5021802;28;20712;-65
2021/01/26 07:57:29;;;;;;;34.10;25.80;;;1.80;99.90;;;;;;5022863;28;20614;-66
2021/01/26 08:00:20;;;;;;;34.00;26.80;;;1.90;99.90;;;;;;5025027;28;20614;-66
2021/01/26 08:03:05;;;;;;;34.30;25.57;;;1.90;99.90;;;;;;5024339;28;20615;-66
2021/01/26 08:05:55;;;;;;;35.77;25.47;;;2.00;99.90;;;;;;5020204;28;20785;-65
2021/01/26 08:08:42;;;;;;;35.43;26.30;;;2.00;99.90;;;;;;5029992;28;20976;-66
2021/01/26 08:11:27;;;;;;;37.30;27.53;;;2.10;99.90;;;;;;5026244;28;20777;-66
2021/01/26 08:15:08;;;;;;;36.60;26.80;;;2.10;99.90;;;;;;5019518;28;21271;-66
2021/01/26 08:17:54;;;;;;;36.93;26.57;;;2.10;99.90;;;;;;5002303;28;20666;-66
2021/01/26 08:20:38;;;;;;;36.57;26.17;;;2.20;99.90;;;;;;5030170;28;20618;-65
2021/01/26 08:23:29;;;;;;;36.60;26.90;;;2.20;99.90;;;;;;5014161;28;20595;-66
2021/01/26 08:26:18;;;;;;;38.80;28.97;;;2.20;99.90;;;;;;5030040;28;20610;-64
2021/01/26 08:29:03;;;;;;;34.30;26.53;;;2.20;99.90;;;;;;5003046;28;20616;-64
2021/01/26 08:31:47;;;;;;;37.87;28.50;;;2.20;99.90;;;;;;5021487;28;21271;-66
2021/01/26 08:34:38;;;;;;;36.53;27.67;;;2.20;99.90;;;;;;5027013;28;20657;-66
2021/01/26 08:37:44;;;;;;;36.63;27.93;;;2.30;99.90;;;;;;5000137;28;21192;-66
2021/01/26 08:40:29;;;;;;;46.60;31.40;;;2.30;99.90;;;;;;5023503;28;20623;-64
2021/01/26 08:44:00;;;;;;;36.80;27.60;;;2.30;99.90;;;;;;5023038;28;20649;-66
2021/01/26 08:46:46;;;;;;;38.40;27.77;;;2.30;99.90;;;;;;5025489;28;20736;-66
2021/01/26 08:49:35;;;;;;;42.20;30.17;;;2.40;99.90;;;;;;5024124;28;20610;-65
2021/01/26 08:52:20;;;;;;;37.20;27.90;;;2.40;99.90;;;;;;5020934;28;21240;-66
2021/01/26 08:55:05;;;;;;;36.53;28.37;;;2.50;99.90;;;;;;5013677;28;21068;-66
2021/01/26 08:57:49;;;;;;;38.20;28.03;;;2.60;99.90;;;;;;5013844;28;20677;-66
2021/01/26 09:00:53;;;;;;;42.77;29.63;;;2.70;99.90;;;;;;5021388;28;20618;-66
2021/01/26 09:03:42;;;;;;;38.77;28.27;;;2.70;99.90;;;;;;5016732;28;20744;-66
2021/01/26 09:06:33;;;;;;;41.53;29.97;;;2.80;99.90;;;;;;5019403;28;20619;-66
2021/01/26 09:09:24;;;;;;;40.60;31.53;;;2.90;99.90;;;;;;5016024;28;21014;-65
2021/01/26 09:12:09;;;;;;;42.83;30.57;;;2.90;99.90;;;;;;5015900;28;20654;-66
2021/01/26 09:14:59;;;;;;;41.33;31.90;;;3.00;99.90;;;;;;5004811;28;21026;-66
2021/01/26 09:17:44;;;;;;;40.40;29.77;;;3.00;99.90;;;;;;5014379;28;20611;-66
2021/01/26 09:20:31;;;;;;;43.00;31.43;;;3.00;99.90;;;;;;4998336;28;20627;-67
2021/01/26 09:23:21;;;;;;;43.60;30.93;;;3.00;99.90;;;;;;5019577;28;20758;-64
2021/01/26 09:26:17;;;;;;;37.70;29.20;;;3.10;99.90;;;;;;5015246;28;20726;-65
2021/01/26 09:29:01;;;;;;;43.63;30.80;;;3.20;99.90;;;;;;5016402;28;21293;-66
2021/01/26 09:31:46;;;;;;;42.13;29.77;;;3.30;99.90;;;;;;5010958;28;20650;-63
2021/01/26 09:34:33;;;;;;;46.80;31.07;;;3.20;99.90;;;;;;5001468;28;20719;-65
2021/01/26 09:37:24;;;;;;;42.07;30.73;;;3.20;99.90;;;;;;5001911;28;20642;-66
2021/01/26 09:40:12;;;;;;;44.10;31.57;;;3.30;99.90;;;;;;5017448;28;20627;-63
2021/01/26 09:43:08;;;;;;;41.90;30.77;;;3.40;99.90;;;;;;5009696;28;21307;-64
2021/01/26 09:45:56;;;;;;;38.23;28.80;;;3.40;99.90;;;;;;5026323;28;20643;-66
2021/01/26 09:48:43;;;;;;;43.40;30.70;;;3.40;99.90;;;;;;5024174;28;20634;-66
2021/01/26 09:51:31;;;;;;;40.83;29.57;;;3.40;99.90;;;;;;5015236;28;20722;-66
2021/01/26 09:54:24;;;;;;;42.10;28.97;;;3.40;99.90;;;;;;4997241;28;648237;-66
2021/01/26 09:57:14;;;;;;;40.27;29.20;;;3.50;99.90;;;;;;5004278;28;20255;-66
2021/01/26 10:00:00;;;;;;;41.90;29.83;;;3.50;99.90;;;;;;5012134;28;20774;-69
2021/01/26 10:06:27;;;;;;;36.90;27.93;;;3.60;99.90;;;;;;5015671;28;20647;-66
2021/01/26 10:09:33;;;;;;;36.97;27.43;;;3.70;99.90;;;;;;5016712;28;21083;-66
2021/01/26 10:12:34;;;;;;;37.53;27.03;;;3.70;99.90;;;;;;5008817;28;20665;-66
2021/01/26 10:15:26;;;;;;;34.93;26.47;;;4.00;99.90;;;;;;5008974;28;20744;-66
2021/01/26 10:18:16;;;;;;;36.70;26.00;;;4.00;99.90;;;;;;5019984;28;20638;-63
2021/01/26 10:21:06;;;;;;;37.50;27.70;;;4.00;99.90;;;;;;5020766;28;20638;-66
2021/01/26 10:23:59;;;;;;;34.73;26.17;;;4.10;99.90;;;;;;5012330;28;20726;-67
2021/01/26 10:26:46;;;;;;;33.53;26.00;;;4.10;99.90;;;;;;5020235;28;20610;-67
2021/01/26 10:29:34;;;;;;;34.13;23.10;;;4.10;99.90;;;;;;5026166;28;20685;-65
2021/01/26 10:32:39;;;;;;;32.23;25.17;;;4.10;99.90;;;;;;5003815;28;21323;-66
2021/01/26 10:35:35;;;;;;;31.83;24.00;;;4.20;99.90;;;;;;5016617;28;20666;-66
2021/01/26 10:38:31;;;;;;;33.30;24.50;;;4.20;99.90;;;;;;5024710;28;20583;-66
2021/01/26 10:41:24;;;;;;;29.00;23.70;;;4.20;99.90;;;;;;5024260;28;22151;-69
2021/01/26 10:44:12;;;;;;;29.47;23.53;;;4.20;99.90;;;;;;4994172;28;20659;-66
2021/01/26 10:46:57;;;;;;;32.23;23.77;;;4.30;99.90;;;;;;5016165;28;20614;-67
2021/01/26 10:49:42;;;;;;;30.53;22.60;;;4.30;99.90;;;;;;5023331;28;21096;-68
2021/01/26 10:52:53;;;;;;;29.93;23.30;;;4.30;99.90;;;;;;5018800;28;20661;-69
2021/01/26 10:55:38;;;;;;;29.47;22.60;;;4.30;99.90;;;;;;5021667;28;20644;-68
2021/01/26 10:58:23;;;;;;;28.83;22.70;;;4.40;99.90;;;;;;4996562;28;20626;-69
2021/01/26 11:01:09;;;;;;;26.47;21.10;;;4.50;99.90;;;;;;5019447;28;20639;-69
2021/01/26 11:03:54;;;;;;;23.97;19.60;;;4.50;99.90;;;;;;5015239;28;21447;-69
2021/01/26 11:06:39;;;;;;;26.10;21.37;;;4.50;99.90;;;;;;5023499;28;20618;-68
2021/01/26 11:09:25;;;;;;;24.00;18.97;;;4.60;99.90;;;;;;5009361;28;20595;-66
2021/01/26 11:12:10;;;;;;;23.07;18.70;;;4.80;99.90;;;;;;5025335;28;20650;-67
2021/01/26 11:14:55;;;;;;;23.17;19.23;;;4.90;99.90;;;;;;5004043;28;21009;-65
2021/01/26 11:17:39;;;;;;;25.43;20.43;;;5.00;99.90;;;;;;5023638;28;21661;-66
2021/01/26 11:20:24;;;;;;;22.23;18.87;;;5.10;99.90;;;;;;5014662;28;20618;-66
2021/01/26 11:23:09;;;;;;;21.83;18.10;;;5.20;99.90;;;;;;5030083;28;20693;-66
2021/01/26 11:25:53;;;;;;;23.07;17.77;;;5.20;99.90;;;;;;5020807;28;20694;-65
2021/01/26 11:28:38;;;;;;;25.67;16.80;;;5.20;99.90;;;;;;5019729;28;20749;-67
2021/01/26 11:31:23;;;;;;;20.00;16.47;;;5.20;99.90;;;;;;5035764;28;20739;-66
2021/01/26 11:34:08;;;;;;;20.20;16.17;;;5.30;99.90;;;;;;5032995;28;20685;-65
2021/01/26 11:36:53;;;;;;;19.40;15.17;;;5.50;99.90;;;;;;5032379;28;20634;-66
2021/01/26 11:39:39;;;;;;;20.50;15.57;;;5.60;99.90;;;;;;5023760;28;20638;-65
2021/01/26 11:42:23;;;;;;;21.70;14.20;;;5.70;99.90;;;;;;5031031;28;20721;-67
2021/01/26 11:45:11;;;;;;;18.43;16.17;;;5.90;99.90;;;;;;5008717;28;21346;-67
2021/01/26 11:47:56;;;;;;;15.70;13.33;;;6.00;99.90;;;;;;5029939;28;20669;-66
2021/01/26 11:50:41;;;;;;;16.30;14.20;;;6.10;99.90;;;;;;5025995;28;20626;-65
2021/01/26 11:53:25;;;;;;;18.07;14.07;;;6.10;99.90;;;;;;5017268;28;20649;-65
2021/01/26 11:56:10;;;;;;;16.60;14.03;;;5.80;99.90;;;;;;5013504;28;20978;-67
2021/01/26 11:58:54;;;;;;;16.43;14.53;;;6.00;99.90;;;;;;5027250;28;20603;-66
2021/01/26 12:01:39;;;;;;;18.73;15.70;;;6.00;99.90;;;;;;5011880;28;20747;-66
2021/01/26 12:04:23;;;;;;;21.70;15.50;;;6.00;99.90;;;;;;5013652;28;21303;-66
2021/01/26 12:07:10;;;;;;;17.73;14.40;;;6.00;99.90;;;;;;5010475;28;21228;-64
2021/01/26 12:09:55;;;;;;;19.40;15.50;;;6.10;99.90;;;;;;5007996;28;20627;-66
2021/01/26 12:12:39;;;;;;;16.37;13.60;;;6.20;99.90;;;;;;5011117;28;20728;-67
2021/01/26 12:15:27;;;;;;;18.07;14.07;;;6.20;99.90;;;;;;5022707;28;20658;-66
2021/01/26 12:18:12;;;;;;;18.00;13.70;;;6.30;99.90;;;;;;5016898;28;20606;-66
2021/01/26 12:20:57;;;;;;;16.40;13.20;;;6.30;99.90;;;;;;5000868;28;20653;-63
2021/01/26 12:23:47;;;;;;;15.93;12.23;;;6.50;99.90;;;;;;5013007;28;21447;-66
2021/01/26 12:26:34;;;;;;;15.80;13.40;;;6.60;99.90;;;;;;5007028;28;20611;-66
2021/01/26 12:29:19;;;;;;;15.30;13.17;;;6.70;99.90;;;;;;5022222;28;20614;-66
2021/01/26 12:32:04;;;;;;;15.00;12.30;;;6.90;99.90;;;;;;5002903;28;20650;-66
2021/01/26 12:34:49;;;;;;;14.60;11.40;;;7.00;99.90;;;;;;4991741;28;20662;-66
2021/01/26 12:37:33;;;;;;;13.60;11.17;;;7.10;99.90;;;;;;5023793;28;20626;-66
2021/01/26 12:40:18;;;;;;;14.63;11.30;;;7.30;99.90;;;;;;5017633;28;21296;-66
2021/01/26 12:43:03;;;;;;;11.33;10.07;;;7.60;99.90;;;;;;4997094;28;20659;-64
2021/01/26 12:45:48;;;;;;;11.83;10.47;;;7.90;99.90;;;;;;5014138;28;21268;-65
2021/01/26 12:48:32;;;;;;;11.13;9.70;;;8.00;99.90;;;;;;5018955;28;20615;-64
2021/01/26 12:51:17;;;;;;;10.57;9.20;;;8.20;99.90;;;;;;5020266;28;20692;-65
2021/01/26 12:54:01;;;;;;;9.80;7.97;;;8.30;99.90;;;;;;5002141;28;20658;-65
2021/01/26 12:56:49;;;;;;;9.07;7.80;;;8.20;99.90;;;;;;5019571;28;21275;-65
2021/01/26 12:59:34;;;;;;;8.20;7.30;;;8.10;99.90;;;;;;5014387;28;20670;-65
2021/01/26 13:02:20;;;;;;;11.20;8.43;;;8.10;99.90;;;;;;5019844;28;20654;-65
2021/01/26 13:05:05;;;;;;;9.07;8.17;;;7.90;99.90;;;;;;5014507;28;20643;-66
2021/01/26 13:07:50;;;;;;;10.23;8.60;;;7.80;99.90;;;;;;5011556;28;21287;-66
2021/01/26 13:10:34;;;;;;;10.57;8.87;;;7.80;99.90;;;;;;5018706;28;22361;-65
2021/01/26 13:13:19;;;;;;;7.93;6.60;;;7.90;99.90;;;;;;5015334;28;20780;-66
2021/01/26 13:16:06;;;;;;;7.53;5.43;;;7.60;99.90;;;;;;5024228;28;20602;-66
2021/01/26 13:18:53;;;;;;;7.17;5.40;;;7.40;99.90;;;;;;5026885;28;21263;-66
2021/01/26 13:21:38;;;;;;;8.20;6.00;;;7.00;99.90;;;;;;5025443;28;20643;-66
2021/01/26 13:24:22;;;;;;;10.00;6.03;;;6.90;99.90;;;;;;5025020;28;20631;-67
2021/01/26 13:27:07;;;;;;;7.20;5.10;;;6.70;99.90;;;;;;5021610;28;20591;-66
2021/01/26 13:29:53;;;;;;;5.80;4.20;;;6.70;99.90;;;;;;5020475;28;20611;-66
2021/01/26 13:32:38;;;;;;;3.70;3.00;;;6.60;99.90;;;;;;5027509;28;20634;-67
2021/01/26 13:35:26;;;;;;;2.30;1.97;;;6.50;99.90;;;;;;5022299;28;20673;-67
2021/01/26 13:38:13;;;;;;;1.20;1.10;;;6.40;99.90;;;;;;5008650;28;20618;-66
2021/01/26 13:41:00;;;;;;;2.40;1.10;;;6.00;99.90;;;;;;5003503;28;21506;-66
2021/01/26 13:43:45;;;;;;;2.00;0.97;;;5.80;99.90;;;;;;5023055;28;20686;-66
2021/01/26 13:46:30;;;;;;;3.70;1.40;;;5.40;99.90;;;;;;5023546;28;20656;-66
2021/01/26 13:49:14;;;;;;;0.80;0.77;;;5.20;99.90;;;;;;5028444;28;20609;-66
2021/01/26 13:52:03;;;;;;;3.10;0.80;;;5.20;99.90;;;;;;5022597;28;21085;-65
2021/01/26 13:54:48;;;;;;;2.20;1.00;;;5.20;99.90;;;;;;5013866;28;20885;-66
2021/01/26 13:57:37;;;;;;;1.33;0.73;;;5.10;99.90;;;;;;5005450;28;20610;-65
2021/01/26 14:00:22;;;;;;;2.53;0.80;;;5.10;99.90;;;;;;5021193;28;20629;-65
2021/01/26 14:03:07;;;;;;;0.93;0.63;;;5.10;99.90;;;;;;5026550;28;21296;-66
2021/01/26 14:05:52;;;;;;;2.73;1.40;;;5.10;99.90;;;;;;5022975;28;20736;-66
2021/01/26 14:08:37;;;;;;;1.60;0.90;;;5.40;99.90;;;;;;5025733;28;20697;-66
2021/01/26 14:11:21;;;;;;;1.87;0.70;;;6.10;99.90;;;;;;5017634;28;21470;-66
2021/01/26 14:14:06;;;;;;;1.50;1.00;;;6.90;99.90;;;;;;5026230;28;21017;-66
2021/01/26 14:16:51;;;;;;;1.17;1.00;;;7.60;99.90;;;;;;4998638;28;20623;-66
2021/01/26 14:19:35;;;;;;;2.53;1.67;;;8.30;99.90;;;;;;5008363;28;20629;-66
2021/01/26 14:22:20;;;;;;;4.37;1.30;;;8.90;99.90;;;;;;5023352;28;20674;-67
2021/01/26 14:25:05;;;;;;;2.23;1.00;;;9.40;99.90;;;;;;4999810;28;20630;-67
2021/01/26 14:27:51;;;;;;;2.77;1.40;;;9.40;99.90;;;;;;4995423;28;20595;-66
2021/01/26 14:30:36;;;;;;;1.23;1.00;;;9.80;99.90;;;;;;5023150;28;20634;-67
2021/01/26 14:33:21;;;;;;;1.90;1.40;;;10.10;99.90;;;;;;5023132;28;20635;-66
2021/01/26 14:36:06;;;;;;;1.27;1.17;;;10.40;99.90;;;;;;5021831;28;20619;-66
2021/01/26 14:38:53;;;;;;;2.83;1.40;;;10.40;99.90;;;;;;5018819;28;20693;-64
2021/01/26 14:41:38;;;;;;;2.40;1.40;;;10.30;99.90;;;;;;5009153;28;20677;-66
2021/01/26 14:44:23;;;;;;;5.03;1.50;;;9.80;99.90;;;;;;5002634;28;20653;-66
2021/01/26 14:47:12;;;;;;;3.00;1.50;;;9.40;99.90;;;;;;5016172;28;20689;-67